Time;durP1;ratioP1;P1;durP2;ratioP2;P2;SDS_P1;SDS_P2;PMS_P1;PMS_P2;Temp;Humidity;BMP_temperature;BMP_pressure;BME280_temperature;BME280_humidity;BME280_pressure;Samples;Min_cycle;Max_cycle;Signal;HPM_P1;HPM_P2
2022/05/19 00:01:40;;;;;;;8.20;3.97;;;;;;;12.90;40.58;101170.31;4978733;28;97662;-78
2022/05/19 00:04:05;;;;;;;5.88;3.65;;;;;;;12.94;40.04;101178.97;4956951;28;101296;-77
2022/05/19 00:06:31;;;;;;;6.13;3.88;;;;;;;12.83;40.15;101152.13;4951872;28;96776;-78
2022/05/19 00:08:56;;;;;;;7.68;3.72;;;;;;;12.89;40.42;101173.88;4986355;28;96939;-78
2022/05/19 00:11:29;;;;;;;9.23;4.22;;;;;;;12.91;39.71;101173.78;4977851;28;97576;-78
2022/05/19 00:13:55;;;;;;;6.50;3.78;;;;;;;12.81;40.35;101172.38;4957239;28;101308;-78
2022/05/19 00:16:20;;;;;;;7.13;3.72;;;;;;;12.66;40.55;101163.16;4972725;28;96737;-78
2022/05/19 00:18:46;;;;;;;8.30;3.78;;;;;;;12.68;40.82;101169.22;4984973;28;96806;-78
2022/05/19 00:21:11;;;;;;;8.50;4.22;;;;;;;12.60;40.77;101163.31;4987650;28;97402;-78
2022/05/19 00:23:37;;;;;;;8.60;4.10;;;;;;;12.56;41.34;101164.31;4992990;28;97355;-79
2022/05/19 00:26:03;;;;;;;8.88;4.03;;;;;;;12.68;40.69;101163.94;4976181;28;97054;-78
2022/05/19 00:28:29;;;;;;;12.63;4.03;;;;;;;12.71;40.94;101163.00;4972196;28;96871;-78
2022/05/19 00:30:55;;;;;;;6.07;4.00;;;;;;;12.55;41.68;101170.50;4989964;28;97484;-78
2022/05/19 00:33:20;;;;;;;5.88;3.63;;;;;;;12.28;41.35;101135.28;4997717;28;101012;-78
2022/05/19 00:35:46;;;;;;;8.32;3.88;;;;;;;12.44;41.59;101168.16;4987054;28;97136;-78
2022/05/19 00:38:11;;;;;;;13.05;4.40;;;;;;;12.41;41.56;101139.28;4987297;28;97154;-78
2022/05/19 00:40:37;;;;;;;8.13;3.58;;;;;;;12.45;41.80;101169.91;4953589;28;101473;-78
2022/05/19 00:43:04;;;;;;;9.30;3.90;;;;;;;12.33;42.02;101152.66;4972045;28;100820;-78
2022/05/19 00:45:44;;;;;;;9.15;3.95;;;;;;;12.43;42.06;101164.66;4977118;28;97181;-78
2022/05/19 00:48:19;;;;;;;8.60;3.90;;;;;;;12.41;41.90;101161.19;4974514;28;96770;-77
2022/05/19 00:50:57;;;;;;;17.75;5.10;;;;;;;12.38;42.00;101155.16;4973447;28;102014;-78
2022/05/19 00:53:51;;;;;;;8.85;4.03;;;;;;;12.38;42.38;101163.91;4969198;28;100644;-78
2022/05/19 00:56:28;;;;;;;6.47;3.50;;;;;;;12.30;42.46;101160.63;4975322;28;97162;-77
2022/05/19 00:58:56;;;;;;;9.77;3.83;;;;;;;12.18;42.30;101143.41;4979335;28;97071;-78
2022/05/19 01:01:22;;;;;;;7.57;3.75;;;;;;;12.24;42.47;101158.19;4992178;28;101216;-78
2022/05/19 01:03:53;;;;;;;8.48;4.20;;;;;;;12.13;42.55;101160.22;4971744;28;101012;-78
2022/05/19 01:06:21;;;;;;;8.55;3.90;;;;;;;12.18;42.71;101160.97;4971543;28;100323;-78
2022/05/19 01:08:51;;;;;;;6.05;3.70;;;;;;;12.15;43.07;101161.91;4969925;28;97030;-78
2022/05/19 01:11:18;;;;;;;6.45;3.75;;;;;;;11.89;43.38;101157.34;4991574;28;97460;-78
2022/05/19 01:13:44;;;;;;;6.68;4.25;;;;;;;12.03;43.49;101169.28;4969665;28;101642;-77
2022/05/19 01:16:10;;;;;;;11.50;3.70;;;;;;;11.88;43.60;101147.75;4976197;28;96852;-78
2022/05/19 01:18:37;;;;;;;10.55;3.83;;;;;;;11.89;43.82;101151.22;4992828;28;97337;-78
2022/05/19 01:21:03;;;;;;;9.15;3.45;;;;;;;11.85;43.88;101150.47;4973757;28;101325;-77
2022/05/19 01:23:38;;;;;;;7.03;4.10;;;;;;;11.92;43.80;101157.28;4973042;28;97469;-78
2022/05/19 01:26:22;;;;;;;7.28;3.90;;;;;;;11.74;44.39;101144.56;4984389;28;96701;-78
2022/05/19 01:28:48;;;;;;;9.30;4.20;;;;;;;11.75;44.58;101147.19;4975062;28;97367;-78
2022/05/19 01:31:57;;;;;;;7.70;3.35;;;;;;;11.80;44.25;101157.56;4974435;28;97948;-78
2022/05/19 01:34:26;;;;;;;7.63;4.90;;;;;;;11.80;44.37;101154.94;4933818;28;101487;-78
2022/05/19 01:36:52;;;;;;;9.20;4.13;;;;;;;11.70;44.49;101159.56;4974665;28;97394;-78
2022/05/19 01:39:26;;;;;;;7.95;3.78;;;;;;;11.64;44.45;101165.00;4953221;28;97186;-78
2022/05/19 01:42:28;;;;;;;8.65;4.60;;;;;;;11.68;45.01;101163.16;4956030;28;101600;-78
2022/05/19 01:45:23;;;;;;;10.60;4.60;;;;;;;11.62;44.92;101158.03;4991266;28;99403;-78
2022/05/19 01:47:59;;;;;;;8.20;4.55;;;;;;;11.61;45.07;101166.84;4977447;28;96891;-78
2022/05/19 01:50:34;;;;;;;9.48;4.53;;;;;;;11.63;45.36;101157.13;4973538;28;97158;-79
2022/05/19 01:53:02;;;;;;;7.32;4.15;;;;;;;11.55;45.48;101166.09;4989096;28;101442;-78
2022/05/19 01:55:53;;;;;;;7.60;4.13;;;;;;;11.57;45.41;101163.41;4978907;28;101303;-77
2022/05/19 01:58:22;;;;;;;7.68;4.35;;;;;;;11.37;45.80;101139.38;4995451;28;97218;-78
2022/05/19 02:00:52;;;;;;;13.00;4.55;;;;;;;11.40;45.86;101158.56;4978551;28;96752;-77
2022/05/19 02:03:42;;;;;;;10.48;5.18;;;;;;;11.40;45.94;101162.94;4958994;28;101259;-78
2022/05/19 02:06:51;;;;;;;9.50;4.70;;;;;;;11.41;46.13;101162.94;4977055;28;101690;-77
2022/05/19 02:09:50;;;;;;;9.02;4.38;;;;;;;11.46;45.86;101168.94;4977405;28;96808;-77
2022/05/19 02:12:16;;;;;;;10.15;4.82;;;;;;;11.30;46.79;101160.53;4977919;28;98124;-78
2022/05/19 02:15:06;;;;;;;7.70;4.63;;;;;;;11.40;46.12;101166.44;4966035;28;97516;-78
2022/05/19 02:17:32;;;;;;;7.75;4.45;;;;;;;11.33;46.69;101159.63;4979411;28;97672;-78
2022/05/19 02:20:03;;;;;;;8.25;4.80;;;;;;;11.41;46.61;101155.03;5001364;28;97345;-78
2022/05/19 02:22:33;;;;;;;7.13;4.25;;;;;;;11.13;46.76;101133.78;4980350;28;97372;-78
2022/05/19 02:25:07;;;;;;;6.95;4.22;;;;;;;11.17;47.12;101155.59;4983840;28;97448;-78
2022/05/19 02:27:36;;;;;;;12.35;4.57;;;;;;;11.08;47.57;101156.69;4968079;28;101188;-78
2022/05/19 02:30:07;;;;;;;7.38;4.00;;;;;;;11.03;47.78;101155.94;4954356;28;97858;-78
2022/05/19 02:32:33;;;;;;;8.77;4.65;;;;;;;10.98;48.07;101158.66;4975026;28;96843;-78
2022/05/19 02:34:58;;;;;;;9.73;4.25;;;;;;;10.98;47.81;101152.56;4957750;28;100810;-78
2022/05/19 02:37:24;;;;;;;8.43;4.63;;;;;;;10.97;47.45;101141.19;4955460;28;101171;-77
2022/05/19 02:39:49;;;;;;;9.50;4.25;;;;;;;10.94;48.07;101150.88;4970642;28;96812;-78
2022/05/19 02:42:15;;;;;;;10.13;4.95;;;;;;;10.98;47.89;101147.28;5003078;28;97014;-77
2022/05/19 02:44:40;;;;;;;7.38;4.18;;;;;;;10.95;48.41;101153.47;4974306;28;101202;-78
2022/05/19 02:47:06;;;;;;;10.93;4.38;;;;;;;10.81;48.74;101139.78;4962753;28;101085;-78
2022/05/19 02:49:32;;;;;;;7.55;4.35;;;;;;;10.87;48.58;101147.53;4973747;28;97019;-78
2022/05/19 02:51:57;;;;;;;8.43;4.97;;;;;;;10.83;48.66;101153.75;4984577;28;96737;-77
2022/05/19 02:54:23;;;;;;;11.70;5.15;;;;;;;10.79;48.57;101144.19;4974179;28;101407;-78
2022/05/19 02:56:48;;;;;;;11.93;5.28;;;;;;;10.75;48.66;101145.16;4980677;28;97664;-77
2022/05/19 03:01:58;;;;;;;10.40;5.45;;;;;;;10.72;49.37;101142.63;4977969;28;97553;-78
2022/05/19 03:04:24;;;;;;;14.90;5.75;;;;;;;10.60;49.43;101133.25;4983191;28;98157;-77
2022/05/19 03:06:49;;;;;;;7.68;4.68;;;;;;;10.67;49.30;101137.44;4978144;28;101424;-77
2022/05/19 03:09:15;;;;;;;12.23;5.00;;;;;;;10.71;49.66;101133.03;4985297;28;97127;-78
2022/05/19 03:11:41;;;;;;;9.38;4.88;;;;;;;10.62;49.63;101134.94;4954306;28;98086;-78
2022/05/19 03:14:06;;;;;;;11.80;4.35;;;;;;;10.47;50.15;101103.78;4984504;28;101147;-78
2022/05/19 03:16:32;;;;;;;11.23;4.97;;;;;;;10.54;50.02;101128.97;4980541;28;100598;-78
2022/05/19 03:18:57;;;;;;;11.07;5.05;;;;;;;10.61;49.93;101141.06;4967897;28;97184;-77
2022/05/19 03:21:23;;;;;;;11.20;4.55;;;;;;;10.63;49.61;101139.28;4999599;28;97540;-77
2022/05/19 03:23:48;;;;;;;9.50;4.60;;;;;;;10.47;50.51;101113.38;4954067;28;100312;-77
2022/05/19 03:26:14;;;;;;;11.48;5.70;;;;;;;10.57;49.91;101133.31;4970972;28;97358;-77
2022/05/19 03:28:40;;;;;;;9.55;4.43;;;;;;;10.49;50.33;101132.59;4983991;28;96752;-78
2022/05/19 03:31:08;;;;;;;7.85;4.28;;;;;;;10.52;50.39;101138.63;4953175;28;97107;-79
2022/05/19 03:33:33;;;;;;;8.90;4.25;;;;;;;10.45;50.53;101118.69;4956474;28;101665;-78
2022/05/19 03:36:00;;;;;;;10.65;5.43;;;;;;;10.60;50.49;101141.97;4985459;28;100928;-78
2022/05/19 03:38:27;;;;;;;12.35;4.43;;;;;;;10.66;49.93;101122.59;4957611;28;96801;-78
2022/05/19 03:40:52;;;;;;;9.98;3.85;;;;;;;10.75;49.94;101132.91;4972784;28;96911;-78
2022/05/19 03:43:18;;;;;;;10.10;4.05;;;;;;;10.67;50.39;101126.94;4973574;28;97530;-78
2022/05/19 03:45:45;;;;;;;6.93;3.88;;;;;;;10.53;50.29;101098.38;4969598;28;98038;-78
2022/05/19 03:48:12;;;;;;;8.95;4.47;;;;;;;10.83;50.28;101124.88;4966711;28;97041;-77
2022/05/19 03:50:38;;;;;;;10.63;3.97;;;;;;;10.82;50.25;101129.25;4973026;28;97355;-78
2022/05/19 03:53:04;;;;;;;11.45;5.10;;;;;;;10.88;50.19;101130.88;4971545;28;97460;-78
2022/05/19 03:55:30;;;;;;;8.32;4.57;;;;;;;10.91;50.56;101128.19;4959930;28;99052;-77
2022/05/19 03:57:56;;;;;;;9.20;3.83;;;;;;;11.00;49.95;101119.25;4979843;28;96764;-79
2022/05/19 04:00:22;;;;;;;9.20;3.75;;;;;;;11.14;49.63;101126.78;4973113;28;96803;-78
2022/05/19 04:02:48;;;;;;;8.23;4.25;;;;;;;11.14;49.90;101119.78;4992652;28;98118;-78
2022/05/19 04:05:14;;;;;;;7.85;3.72;;;;;;;11.09;49.92;101125.13;4981592;28;101577;-78
2022/05/19 04:07:41;;;;;;;5.93;4.07;;;;;;;11.14;49.87;101118.88;4965045;28;96946;-78
2022/05/19 04:10:08;;;;;;;12.73;4.03;;;;;;;11.15;50.02;101118.88;4973325;28;96836;-78
2022/05/19 04:12:34;;;;;;;7.32;4.05;;;;;;;11.12;50.31;101123.34;4959559;28;101212;-78
2022/05/19 04:14:59;;;;;;;14.90;3.92;;;;;;;11.36;49.50;101119.25;4950705;28;101641;-77
2022/05/19 04:17:25;;;;;;;8.40;4.25;;;;;;;11.48;49.46;101117.16;4976493;28;97366;-78
2022/05/19 04:19:51;;;;;;;9.30;3.88;;;;;;;11.68;49.12;101128.94;4972931;28;97547;-78
2022/05/19 04:22:16;;;;;;;9.32;4.32;;;;;;;11.83;48.83;101128.53;4998173;28;97414;-77
2022/05/19 04:24:42;;;;;;;8.85;3.90;;;;;;;11.85;48.86;101128.53;4978884;28;101705;-78
2022/05/19 04:27:08;;;;;;;6.93;4.13;;;;;;;11.98;48.27;101124.66;4989890;28;96793;-78
2022/05/19 04:29:33;;;;;;;7.90;3.78;;;;;;;12.09;48.03;101119.97;4982697;28;97012;-77
2022/05/19 04:31:59;;;;;;;6.88;3.72;;;;;;;12.24;47.83;101122.19;4990698;28;97859;-78
2022/05/19 04:34:24;;;;;;;8.35;3.70;;;;;;;12.46;47.62;101130.34;4989315;28;97418;-78
2022/05/19 04:36:50;;;;;;;7.63;3.63;;;;;;;12.57;46.95;101124.78;4976145;28;96805;-77
2022/05/19 04:39:15;;;;;;;7.25;3.70;;;;;;;12.82;46.72;101124.03;4969625;28;97223;-78
2022/05/19 04:41:41;;;;;;;9.15;4.03;;;;;;;12.88;46.61;101129.09;4987022;28;97509;-78
2022/05/19 04:44:06;;;;;;;5.60;3.40;;;;;;;12.94;45.84;101106.97;4971025;28;101873;-77
2022/05/19 04:46:32;;;;;;;7.03;3.75;;;;;;;13.22;46.15;101122.78;4959122;28;96805;-78
2022/05/19 04:49:00;;;;;;;10.85;3.90;;;;;;;13.17;45.91;101115.00;4963853;28;96855;-78
2022/05/19 04:51:25;;;;;;;9.95;3.92;;;;;;;13.29;45.53;101116.41;4959912;28;98214;-77
2022/05/19 04:53:51;;;;;;;4.38;3.03;;;;;;;13.39;45.59;101093.25;4956013;28;97552;-78
2022/05/19 04:56:16;;;;;;;5.35;3.53;;;;;;;13.77;44.96;101120.97;4967700;28;96970;-78
2022/05/19 04:58:43;;;;;;;6.25;3.17;;;;;;;13.87;44.62;101106.53;4987698;28;97153;-77
2022/05/19 05:01:09;;;;;;;6.00;3.25;;;;;;;14.12;44.23;101118.88;4974411;28;97608;-78
2022/05/19 05:03:34;;;;;;;10.63;3.65;;;;;;;14.39;43.95;101119.63;4975335;28;101130;-75
2022/05/19 05:06:00;;;;;;;6.90;3.70;;;;;;;14.36;43.98;101120.59;4983001;28;96818;-76
2022/05/19 05:08:25;;;;;;;6.60;3.25;;;;;;;14.58;43.88;101128.63;4981482;28;97199;-74
2022/05/19 05:10:51;;;;;;;11.38;3.33;;;;;;;14.82;43.16;101115.38;4993847;28;97440;-82
2022/05/19 05:13:17;;;;;;;10.55;3.65;;;;;;;15.03;42.40;101135.69;4993541;28;98789;-76
2022/05/19 05:15:44;;;;;;;5.65;3.85;;;;;;;15.26;42.74;101134.75;4977494;28;97021;-77
2022/05/19 05:18:10;;;;;;;6.53;3.10;;;;;;;15.60;41.38;101133.38;4963213;28;96789;-76
2022/05/19 05:20:37;;;;;;;6.55;3.30;;;;;;;15.77;41.11;101140.63;4957126;28;101322;-75
2022/05/19 05:23:05;;;;;;;8.00;3.15;;;;;;;16.01;40.16;101118.38;4997047;28;97885;-75
2022/05/19 05:25:31;;;;;;;8.68;3.03;;;;;;;16.45;39.61;101130.56;4973368;28;96791;-78
2022/05/19 05:27:57;;;;;;;6.40;3.00;;;;;;;16.79;39.36;101142.31;4968507;28;97119;-75
2022/05/19 05:30:23;;;;;;;6.63;2.80;;;;;;;17.27;38.77;101139.06;4966551;28;101715;-76
2022/05/19 05:32:49;;;;;;;10.25;3.35;;;;;;;18.18;36.95;101137.16;4962974;28;101731;-75
2022/05/19 05:35:15;;;;;;;7.07;2.92;;;;;;;18.90;35.76;101131.47;4974813;28;96798;-76
2022/05/19 05:37:41;;;;;;;10.13;4.35;;;;;;;19.92;34.32;101134.47;4966026;28;97374;-76
2022/05/19 05:40:08;;;;;;;17.63;2.75;;;;;;;20.83;33.51;101139.53;4974420;28;102092;-76
2022/05/19 05:42:34;;;;;;;8.82;2.75;;;;;;;22.05;31.19;101134.06;4987701;28;97926;-75
2022/05/19 05:45:00;;;;;;;4.82;2.53;;;;;;;23.20;29.20;101135.72;4986680;28;97335;-76
2022/05/19 05:47:26;;;;;;;8.82;3.08;;;;;;;24.03;28.64;101133.00;4951983;28;96977;-76
2022/05/19 05:49:51;;;;;;;5.65;3.05;;;;;;;24.67;27.76;101132.44;4969936;28;101244;-76
2022/05/19 05:52:17;;;;;;;7.53;3.13;;;;;;;25.48;26.71;101123.06;4953173;28;101488;-74
2022/05/19 05:54:43;;;;;;;6.20;2.58;;;;;;;26.22;26.10;101118.63;4986188;28;96793;-79
2022/05/19 05:57:08;;;;;;;10.20;2.90;;;;;;;27.30;25.16;101105.31;4952398;28;97294;-75
2022/05/19 05:59:33;;;;;;;8.10;3.03;;;;;;;28.01;23.95;101113.06;4968555;28;100737;-77
2022/05/19 06:01:59;;;;;;;4.18;2.28;;;;;;;29.05;23.44;101115.59;4952255;28;101007;-76
2022/05/19 06:04:24;;;;;;;7.15;2.63;;;;;;;29.94;22.17;101103.84;4967568;28;97079;-76
2022/05/19 06:06:51;;;;;;;6.20;2.50;;;;;;;30.67;21.06;101096.09;4973602;28;97301;-76
2022/05/19 06:09:17;;;;;;;5.10;2.33;;;;;;;30.53;21.52;101104.00;4983549;28;97459;-75
2022/05/19 06:11:43;;;;;;;6.95;2.67;;;;;;;30.88;20.96;101092.13;4985796;28;97621;-75
2022/05/19 06:14:10;;;;;;;6.30;2.90;;;;;;;31.00;21.32;101100.78;4951467;28;97032;-78
2022/05/19 06:16:36;;;;;;;6.53;2.50;;;;;;;31.67;20.74;101096.09;4953589;28;97257;-76
2022/05/19 06:19:03;;;;;;;7.25;2.50;;;;;;;32.59;19.52;101090.28;4971178;28;101134;-76
2022/05/19 06:21:28;;;;;;;5.47;2.38;;;;;;;32.51;19.79;101091.16;4958689;28;101099;-79
2022/05/19 06:23:54;;;;;;;4.95;2.30;;;;;;;33.05;19.45;101090.38;4981518;28;97983;-81
2022/05/19 06:26:20;;;;;;;6.20;2.50;;;;;;;33.59;19.25;101088.41;4973423;28;97263;-79
2022/05/19 06:28:45;;;;;;;7.22;1.90;;;;;;;33.66;19.22;101096.69;4967870;28;100680;-81
2022/05/19 06:31:11;;;;;;;5.93;2.30;;;;;;;33.81;18.69;101091.25;4971793;28;97316;-78
2022/05/19 06:33:37;;;;;;;5.03;2.00;;;;;;;34.37;18.62;101088.94;4968403;28;96889;-78
2022/05/19 06:36:04;;;;;;;3.30;1.90;;;;;;;34.84;17.81;101092.25;4980411;28;96889;-78
2022/05/19 06:38:31;;;;;;;2.72;1.70;;;;;;;35.14;17.80;101087.53;4971857;28;97569;-81
2022/05/19 06:42:00;;;;;;;4.03;1.70;;;;;;;35.48;17.38;101092.25;4969899;28;100749;-79
2022/05/19 06:43:46;;;;;;;4.88;1.92;;;;;;;36.31;16.56;101092.44;4973533;28;97640;-78
2022/05/19 06:46:12;;;;;;;2.53;1.52;;;;;;;36.24;16.39;101080.63;4961478;28;96880;-78
2022/05/19 06:48:38;;;;;;;5.25;1.60;;;;;;;36.22;16.84;101090.94;4968473;28;101679;-79
2022/05/19 06:51:03;;;;;;;3.58;1.80;;;;;;;36.34;16.82;101092.03;4970580;28;97862;-77
2022/05/19 06:53:29;;;;;;;7.25;2.03;;;;;;;37.10;16.19;101089.16;4988183;28;97691;-79
2022/05/19 06:55:54;;;;;;;2.35;1.60;;;;;;;37.54;16.20;101089.63;4973560;28;97227;-80
2022/05/19 06:58:20;;;;;;;5.38;1.50;;;;;;;37.77;15.71;101080.97;4944219;28;101738;-78
2022/05/19 07:00:46;;;;;;;2.20;1.60;;;;;;;37.77;15.54;101081.81;4978689;28;97961;-78
2022/05/19 07:03:12;;;;;;;4.13;1.40;;;;;;;37.34;16.56;101090.44;4952185;28;97357;-81
2022/05/19 07:05:39;;;;;;;3.60;1.42;;;;;;;37.69;16.14;101084.78;4983732;28;97053;-82
2022/05/19 07:08:06;;;;;;;5.57;1.80;;;;;;;38.44;15.81;101081.66;4970250;28;97430;-81
2022/05/19 07:10:32;;;;;;;5.03;1.88;;;;;;;38.54;15.62;101086.69;4968397;28;101761;-79
2022/05/19 07:12:59;;;;;;;5.65;2.45;;;;;;;37.99;15.42;101087.91;4965789;28;96825;-79
2022/05/19 07:15:25;;;;;;;5.70;1.70;;;;;;;37.91;15.15;101085.38;4961129;28;96976;-80
2022/05/19 07:17:50;;;;;;;4.45;1.40;;;;;;;38.48;15.56;101081.00;4945127;28;100677;-79
2022/05/19 07:23:02;;;;;;;2.13;1.30;;;;;;;37.16;14.89;101085.59;4974433;28;96990;-81
2022/05/19 07:25:28;;;;;;;4.70;1.70;;;;;;;36.96;15.57;101079.22;4973091;28;97346;-81
2022/05/19 07:27:53;;;;;;;6.15;1.52;;;;;;;37.51;15.43;101066.25;4971634;28;98088;-80
2022/05/19 07:30:19;;;;;;;17.15;1.90;;;;;;;36.46;15.81;101070.44;4976466;28;97909;-79
2022/05/19 07:32:45;;;;;;;7.10;1.52;;;;;;;36.88;16.15;101055.63;4976916;28;97579;-79
2022/05/19 07:35:13;;;;;;;3.67;1.92;;;;;;;37.26;15.27;101068.75;4980110;28;97391;-80
2022/05/19 07:37:39;;;;;;;6.20;1.45;;;;;;;36.77;16.01;101067.22;4990819;28;100895;-81
2022/05/19 07:40:06;;;;;;;6.25;2.00;;;;;;;37.07;16.18;101062.22;4980631;28;98026;-79
2022/05/19 07:42:31;;;;;;;6.22;1.70;;;;;;;38.18;15.01;101061.50;4966375;28;97605;-78
2022/05/19 07:44:57;;;;;;;4.47;1.55;;;;;;;37.72;15.06;101062.44;4972817;28;97309;-81
2022/05/19 07:47:23;;;;;;;2.45;1.48;;;;;;;37.93;14.96;101068.72;4970779;28;97613;-79
2022/05/19 07:49:48;;;;;;;5.28;1.83;;;;;;;38.32;15.68;101059.56;4989651;28;100945;-79
2022/05/19 07:52:14;;;;;;;6.03;1.65;;;;;;;38.70;14.54;101065.06;4986193;28;96771;-79
2022/05/19 07:54:40;;;;;;;4.45;1.52;;;;;;;38.88;14.20;101061.63;4980254;28;96831;-81
2022/05/19 07:57:07;;;;;;;6.70;1.73;;;;;;;38.56;14.63;101065.38;4978659;28;101480;-80
2022/05/19 07:59:33;;;;;;;5.03;1.60;;;;;;;37.76;15.55;101054.63;4970436;28;97898;-79
2022/05/19 08:01:59;;;;;;;3.35;1.50;;;;;;;38.12;15.55;101065.09;4984373;28;96795;-79
2022/05/19 08:04:26;;;;;;;5.25;2.10;;;;;;;38.72;15.34;101057.47;4975434;28;96876;-79
2022/05/19 08:06:52;;;;;;;7.45;1.60;;;;;;;39.08;14.66;101066.97;5006968;27;97515;-79
2022/05/19 08:12:03;;;;;;;5.35;1.55;;;;;;;38.39;15.05;101063.09;4982208;28;96737;-80
2022/05/19 08:17:17;;;;;;;7.00;2.00;;;;;;;38.50;15.14;101064.34;4996618;28;97240;-79
2022/05/19 08:19:43;;;;;;;3.30;1.63;;;;;;;38.49;15.19;101068.16;4977226;28;97426;-79
2022/05/19 08:22:09;;;;;;;4.05;1.55;;;;;;;39.01;14.08;101052.47;4983825;28;96903;-78
2022/05/19 08:24:36;;;;;;;6.50;1.50;;;;;;;39.50;14.61;101055.44;5000818;28;98167;-79
2022/05/19 08:27:02;;;;;;;3.17;1.92;;;;;;;39.11;14.63;101058.28;4986435;28;98022;-80
2022/05/19 08:29:28;;;;;;;7.82;1.73;;;;;;;39.91;14.38;101048.50;4983345;28;97704;-78
2022/05/19 08:31:53;;;;;;;3.88;1.42;;;;;;;39.95;13.96;101056.06;4973344;28;96896;-79
2022/05/19 08:34:19;;;;;;;4.53;1.52;;;;;;;39.36;14.90;101055.59;4989395;28;97351;-79
2022/05/19 08:36:45;;;;;;;6.57;2.05;;;;;;;40.54;13.99;101058.31;4986007;28;97411;-78
2022/05/19 08:39:12;;;;;;;5.22;1.50;;;;;;;41.43;12.86;101041.94;4949972;28;101355;-77
2022/05/19 08:41:41;;;;;;;2.75;1.50;;;;;;;40.71;13.43;101048.34;5021181;28;96729;-81
2022/05/19 08:44:14;;;;;;;4.97;1.90;;;;;;;40.61;13.65;101056.28;4990822;28;97008;-76
2022/05/19 08:46:45;;;;;;;4.13;1.70;;;;;;;40.23;13.64;101041.81;4995102;28;97380;-76
2022/05/19 08:49:17;;;;;;;4.50;1.60;;;;;;;39.71;13.87;101044.03;4992806;28;97342;-75
2022/05/19 08:51:49;;;;;;;5.75;2.25;;;;;;;40.63;13.99;101041.28;4980892;28;97210;-76
2022/05/19 08:54:23;;;;;;;11.30;2.13;;;;;;;40.27;13.87;101032.00;4999268;28;97258;-76
2022/05/19 08:57:13;;;;;;;17.02;2.05;;;;;;;40.63;13.81;101023.94;4981899;28;101502;-76
2022/05/19 09:00:13;;;;;;;33.83;3.92;;;;;;;40.14;14.26;101031.31;4959749;28;101801;-75
2022/05/19 09:03:23;;;;;;;7.68;1.77;;;;;;;40.27;14.15;101026.50;4984434;28;97318;-76
2022/05/19 09:06:07;;;;;;;5.88;1.98;;;;;;;40.03;14.21;101025.53;4995932;28;97232;-76
2022/05/19 09:08:55;;;;;;;16.88;2.30;;;;;;;39.72;14.85;101018.25;4992972;28;97545;-76
2022/05/19 09:11:23;;;;;;;9.68;2.10;;;;;;;39.30;15.45;101011.69;4992497;28;101298;-77
2022/05/19 09:14:03;;;;;;;4.97;1.48;;;;;;;38.44;15.15;101016.69;4988147;28;97160;-76
2022/05/19 09:16:34;;;;;;;3.28;1.30;;;;;;;37.43;15.56;101014.41;5000054;28;96924;-79
2022/05/19 09:19:24;;;;;;;5.57;1.40;;;;;;;37.26;15.70;101015.91;4981262;28;101224;-82
2022/05/19 09:22:11;;;;;;;2.28;1.60;;;;;;;36.62;16.05;101000.91;4991351;28;98039;-80
2022/05/19 09:24:37;;;;;;;5.60;1.60;;;;;;;35.69;16.49;101014.94;4976421;28;96756;-73
2022/05/19 09:27:04;;;;;;;2.88;1.40;;;;;;;35.08;16.21;101011.94;4975582;28;96870;-74
2022/05/19 09:29:40;;;;;;;3.75;1.60;;;;;;;34.45;16.83;100998.06;4973499;28;97359;-74
2022/05/19 09:32:16;;;;;;;8.40;1.70;;;;;;;34.52;16.53;101007.16;4971773;28;98029;-73
2022/05/19 09:35:06;;;;;;;3.75;1.45;;;;;;;34.85;16.64;101014.84;4985358;28;97611;-73
2022/05/19 09:37:37;;;;;;;4.35;1.40;;;;;;;34.52;16.16;101007.16;4973039;28;96848;-74
2022/05/19 09:40:12;;;;;;;3.95;1.55;;;;;;;34.75;16.43;101011.63;4962078;28;101179;-73
2022/05/19 09:42:58;;;;;;;3.67;1.52;;;;;;;34.11;16.04;101002.25;4980682;28;98388;-73
2022/05/19 09:45:27;;;;;;;3.70;1.90;;;;;;;34.48;16.43;100997.69;4984414;28;96780;-73
2022/05/19 09:48:05;;;;;;;3.08;1.30;;;;;;;34.63;15.95;100993.03;4974864;28;96935;-73
2022/05/19 09:50:44;;;;;;;8.57;1.83;;;;;;;34.89;16.47;100997.06;4976791;28;98608;-75
2022/05/19 09:53:14;;;;;;;5.35;1.20;;;;;;;34.84;16.46;100986.75;4955050;28;101610;-74
2022/05/19 09:55:41;;;;;;;4.20;1.63;;;;;;;34.03;17.51;100981.44;4969513;28;96883;-73
2022/05/19 09:58:09;;;;;;;21.05;3.05;;;;;;;34.00;16.94;100987.22;4977054;28;97303;-73
2022/05/19 10:00:37;;;;;;;5.65;1.73;;;;;;;33.92;17.20;100979.16;4966916;28;97576;-73
2022/05/19 10:03:10;;;;;;;1.92;1.25;;;;;;;33.56;17.04;100982.63;4971279;28;97991;-76
2022/05/19 10:05:47;;;;;;;4.40;1.52;;;;;;;32.96;17.76;100963.63;4995395;28;97339;-76
2022/05/19 10:08:23;;;;;;;3.33;1.48;;;;;;;32.64;18.18;100979.19;4956407;28;97053;-75
2022/05/19 10:11:14;;;;;;;3.30;1.20;;;;;;;31.77;18.62;100974.63;4969292;28;101695;-76
2022/05/19 10:13:42;;;;;;;6.63;1.30;;;;;;;31.77;18.88;100971.94;4963362;28;100884;-74
2022/05/19 10:16:21;;;;;;;4.03;1.42;;;;;;;31.65;18.80;100967.91;4971409;28;96918;-75
2022/05/19 10:18:49;;;;;;;3.38;1.42;;;;;;;31.14;19.17;100970.00;4969461;28;96700;-74
2022/05/19 10:21:37;;;;;;;4.22;1.20;;;;;;;30.64;19.30;100966.41;4987373;28;97505;-75
2022/05/19 10:24:38;;;;;;;3.97;1.23;;;;;;;30.43;19.02;100957.91;4969026;28;101086;-79
2022/05/19 10:33:22;;;;;;;3.88;1.30;;;;;;;28.92;20.74;100953.81;4984968;28;98331;-80
2022/05/19 10:36:09;;;;;;;5.65;1.50;;;;;;;28.94;21.37;100956.34;4983803;28;97757;-78
2022/05/19 10:38:41;;;;;;;3.25;1.33;;;;;;;28.70;21.16;100954.31;4982435;28;96888;-79
2022/05/19 10:41:19;;;;;;;5.47;1.60;;;;;;;28.61;21.42;100956.91;4974622;28;96960;-79
2022/05/19 10:43:54;;;;;;;2.17;1.30;;;;;;;28.54;21.40;100946.91;4955571;28;101466;-76
2022/05/19 10:46:22;;;;;;;2.03;1.30;;;;;;;28.31;21.29;100946.47;4984015;28;101931;-82
2022/05/19 10:48:54;;;;;;;1.75;1.23;;;;;;;27.63;21.61;100919.81;4947037;28;97203;-76
2022/05/19 10:51:50;;;;;;;9.35;1.58;;;;;;;27.56;22.19;100937.59;4971347;28;96872;-76
2022/05/19 10:54:26;;;;;;;5.85;1.88;;;;;;;27.50;21.70;100930.94;4986435;28;101369;-75
2022/05/19 10:57:18;;;;;;;6.32;1.58;;;;;;;27.39;22.18;100929.25;4987673;28;98529;-76
2022/05/19 11:00:03;;;;;;;3.70;1.38;;;;;;;27.38;22.15;100927.56;4953406;28;96820;-76
2022/05/19 11:02:54;;;;;;;1.77;1.15;;;;;;;27.29;21.88;100923.91;4965309;28;98004;-77
2022/05/19 11:05:51;;;;;;;2.80;1.30;;;;;;;27.19;21.41;100933.00;4973851;28;98168;-76
2022/05/19 11:08:30;;;;;;;8.55;1.55;;;;;;;27.00;21.85;100918.56;4968132;28;101295;-76
2022/05/19 11:11:24;;;;;;;8.27;1.50;;;;;;;26.93;22.00;100911.19;4984290;28;96810;-76
2022/05/19 11:14:08;;;;;;;6.85;1.35;;;;;;;26.68;22.12;100905.41;4981239;28;96911;-76
2022/05/19 11:16:34;;;;;;;6.00;1.20;;;;;;;26.49;21.68;100894.59;4969688;28;101757;-77
2022/05/19 11:19:04;;;;;;;4.25;1.40;;;;;;;26.55;21.36;100907.53;4990106;28;97903;-76
2022/05/19 11:21:43;;;;;;;2.45;1.20;;;;;;;26.36;22.11;100886.81;4958022;28;97013;-77
2022/05/19 11:26:23;;;;;;;3.00;1.50;;;;;;;26.60;22.27;100900.72;4971286;28;97265;-76
2022/05/19 11:27:22;;;;;;;3.28;1.58;;;;;;;26.70;21.14;100899.88;4972627;28;101240;-78
2022/05/19 11:29:57;;;;;;;3.95;1.25;;;;;;;26.56;21.41;100895.78;4945684;28;101856;-75
2022/05/19 11:32:34;;;;;;;4.65;1.30;;;;;;;26.59;21.51;100888.25;4980566;28;97442;-77
2022/05/19 11:35:07;;;;;;;2.78;1.50;;;;;;;26.50;21.12;100878.34;4988103;28;98049;-79
2022/05/19 11:38:00;;;;;;;5.53;1.50;;;;;;;26.47;21.16;100881.31;4996855;28;101567;-77
2022/05/19 11:40:44;;;;;;;1.83;1.20;;;;;;;26.54;21.57;100877.06;4963750;28;97229;-78
2022/05/19 11:43:09;;;;;;;2.22;1.40;;;;;;;26.56;21.34;100883.16;4979775;28;97232;-78
2022/05/19 11:46:00;;;;;;;2.58;1.20;;;;;;;26.52;21.48;100873.66;4985512;28;97453;-77
2022/05/19 11:58:03;;;;;;;3.58;1.40;;;;;;;26.25;23.15;100852.81;4979226;28;98300;-76
2022/05/19 12:00:40;;;;;;;5.05;1.30;;;;;;;26.05;23.05;100841.19;4969329;28;101688;-77
2022/05/19 12:03:19;;;;;;;3.40;1.10;;;;;;;25.87;23.34;100857.16;4970843;28;98395;-79
2022/05/19 12:06:03;;;;;;;2.33;1.67;;;;;;;26.01;23.84;100839.78;4970873;28;97336;-76